Vg 117 Kungsvik — SBTH — position and weather

sailwx.info

Track history (hours):
 
Tides and Currents Weather Stations Pressure Air Temp Water Temp Dewpoint Dewpoint Depression Visibility Wind Speed Wind Dir Waves Ship Positions

Vg 117 Kungsvik

Last reported at 2016-Jun-23 05:26 UTC. Time now 2016-Jun-26 00:54 UTC.
Position N 57°03' E 012°11'.

Length 17 m; draft 3.7 m.

Type: Fishing. MMSI: 266137000.

Date/timePositionNaut miles runAvg speedWind from/ knotsBaromVisibWave heightAir tempDewpointWater temp
2016-Jun-23 05:26N 57°03' E 012°11'4 4.3
2016-Jun-23 04:26N 57°03' E 012°03'2 1.7
2016-Jun-23 03:33N 57°05' E 012°02'2 2.0
2016-Jun-23 02:26N 57°06' E 012°06'2 2.4
2016-Jun-23 01:29N 57°04' E 012°09'2 2.5
2016-Jun-23 00:33N 57°02' E 012°11'2 1.8
2016-Jun-22 23:32N 57°01' E 012°13'2 2.1
2016-Jun-22 22:33N 57°03' E 012°11'3 2.5
2016-Jun-22 21:33N 57°05' E 012°08'3 1.2
2016-Jun-22 19:25N 57°04' E 012°04'3 3.5
2016-Jun-22 18:33N 57°03' E 012°09'3 0.2
2016-Jun-22 05:32N 57°03' E 012°14'6 6.3
2016-Jun-22 04:32N 57°02' E 012°03'4 2.0
2016-Jun-22 02:20N 56°58' E 011°60'2 0.3
2016-Jun-21 20:21N 56°60' E 012°02'1 1.9
2016-Jun-21 19:33N 57°01' E 012°02'3 3.0
2016-Jun-21 18:33N 57°03' E 012°07'5 4.7
2016-Jun-21 17:29N 57°04' E 012°16'0 0.0
2016-Jun-21 15:29N 57°04' E 012°16'0 0.0
2016-Jun-21 14:33N 57°04' E 012°16'0 0.0
2016-Jun-21 13:32N 57°04' E 012°16'0 0.0
2016-Jun-21 12:14N 57°04' E 012°16'0 0.0
2016-Jun-21 11:20N 57°04' E 012°16'0 0.0
2016-Jun-21 10:32N 57°04' E 012°16'0 0.0
2016-Jun-21 09:32N 57°04' E 012°16'0 0.0
2016-Jun-21 08:32N 57°04' E 012°16'0 0.0
2016-Jun-21 07:32N 57°04' E 012°16'0 0.0
2016-Jun-21 04:32N 57°04' E 012°16'0 0.0
2016-Jun-21 03:32N 57°04' E 012°16'0 0.0
2016-Jun-21 02:32N 57°04' E 012°16'0 0.0
2016-Jun-21 01:32N 57°04' E 012°16'0 0.0
2016-Jun-21 00:32N 57°04' E 012°16'0 0.0
2016-Jun-20 23:32N 57°04' E 012°16'0 0.0
2016-Jun-20 22:26N 57°04' E 012°16'0 0.0
2016-Jun-20 21:26N 57°04' E 012°16'0 0.0
2016-Jun-20 20:32N 57°04' E 012°16'0 0.0
2016-Jun-20 19:32N 57°04' E 012°16'0 0.0
2016-Jun-20 18:32N 57°04' E 012°16'0 0.0
2016-Jun-20 17:32N 57°04' E 012°16'0 0.0
2016-Jun-20 16:32N 57°04' E 012°16'0 0.0
2016-Jun-20 15:32N 57°04' E 012°16'0 0.0
2016-Jun-20 14:32N 57°04' E 012°16'0 0.0
2016-Jun-20 13:32N 57°04' E 012°16'0 0.0
2016-Jun-20 12:32N 57°04' E 012°16'0 0.0
2016-Jun-20 11:32N 57°04' E 012°16'0 0.0
2016-Jun-20 10:32N 57°04' E 012°16'0 0.0
2016-Jun-20 08:32N 57°04' E 012°16'0 0.0
2016-Jun-20 05:29N 57°04' E 012°16'0 0.0
2016-Jun-19 20:08N 57°04' E 012°16'0 0.0
2016-Jun-19 19:14N 57°04' E 012°16'  
2016-Jun-17 05:30N 57°03' E 012°15'5 5.2
2016-Jun-17 04:33N 57°02' E 012°06'3 2.5
2016-Jun-17 03:32N 57°02' E 012°02'4 2.0
2016-Jun-17 01:32N 56°58' E 012°01'2 2.4
2016-Jun-17 00:33N 56°60' E 012°05'2 2.4
2016-Jun-16 23:33N 57°01' E 012°09'1 1.2
2016-Jun-16 22:32N 56°60' E 012°07'4 2.1
2016-Jun-16 20:32N 56°58' E 011°60'2 2.4
2016-Jun-16 19:33N 57°00' E 012°02'4 3.8
2016-Jun-16 18:33N 57°03' E 012°08'5 0.4
2016-Jun-16 06:04N 57°03' E 012°16'7 4.3
2016-Jun-16 04:29N 57°01' E 012°05'1 1.6
2016-Jun-16 03:33N 56°59' E 012°05'2 2.3
2016-Jun-16 02:31N 56°59' E 012°00'1 1.5
2016-Jun-16 01:33N 56°60' E 012°02'1 0.7
2016-Jun-16 00:33N 56°59' E 012°03'2 1.9
2016-Jun-15 23:31N 56°59' E 011°59'1 1.4
2016-Jun-15 22:34N 56°59' E 012°01'2 1.8
2016-Jun-15 21:33N 56°59' E 012°05'2 1.7
2016-Jun-15 20:33N 56°60' E 012°01'2 2.5
2016-Jun-15 19:33N 57°00' E 012°06'4 3.9
2016-Jun-15 18:33N 57°03' E 012°12'2 0.2
2016-Jun-15 06:12N 57°03' E 012°16'1 2.0
2016-Jun-15 05:28N 57°03' E 012°13'4 4.1
2016-Jun-15 04:33N 57°02' E 012°06'1 1.3
2016-Jun-15 03:31N 57°01' E 012°06'3 1.4
2016-Jun-15 01:34N 56°59' E 012°02'2 2.2
2016-Jun-15 00:33N 56°60' E 012°06'2 1.8
2016-Jun-14 23:32N 57°01' E 012°09'2 0.4
2016-Jun-14 19:33N 57°01' E 012°05'3 3.2
2016-Jun-14 18:33N 57°02' E 012°10'5 0.4
2016-Jun-14 04:30N 57°03' E 012°01'1 1.1
2016-Jun-14 03:33N 57°02' E 011°59'5 1.4
2016-Jun-14 00:23N 57°01' E 011°51'2 0.4
2016-Jun-13 20:33N 57°03' E 011°53'3 2.5
2016-Jun-13 19:30N 57°03' E 011°57'5 4.8
2016-Jun-13 18:33N 57°03' E 012°06'1 0.1
2016-Jun-13 05:27N 57°03' E 012°08'  
Track history (hours):
 
Tides and Currents Weather Stations Pressure Air Temp Water Temp Dewpoint Dewpoint Depression Visibility Wind Speed Wind Dir Waves Ship Positions

Vg 117 Kungsvik

Last reported at 2016-Jun-23 05:26 UTC. Time now 2016-Jun-26 00:54 UTC.
Position N 57°03' E 012°11'.

Length 17 m; draft 3.7 m.

Type: Fishing. MMSI: 266137000.

Date/timePositionNaut miles runAvg speedWind from/ knotsBaromVisibWave heightAir tempDewpointWater temp
2016-Jun-23 05:26N 57°03' E 012°11'4 4.3
2016-Jun-23 04:26N 57°03' E 012°03'2 1.7
2016-Jun-23 03:33N 57°05' E 012°02'2 2.0
2016-Jun-23 02:26N 57°06' E 012°06'2 2.4
2016-Jun-23 01:29N 57°04' E 012°09'2 2.5
2016-Jun-23 00:33N 57°02' E 012°11'2 1.8
2016-Jun-22 23:32N 57°01' E 012°13'2 2.1
2016-Jun-22 22:33N 57°03' E 012°11'3 2.5
2016-Jun-22 21:33N 57°05' E 012°08'3 1.2
2016-Jun-22 19:25N 57°04' E 012°04'3 3.5
2016-Jun-22 18:33N 57°03' E 012°09'3 0.2
2016-Jun-22 05:32N 57°03' E 012°14'6 6.3
2016-Jun-22 04:32N 57°02' E 012°03'4 2.0
2016-Jun-22 02:20N 56°58' E 011°60'2 0.3
2016-Jun-21 20:21N 56°60' E 012°02'1 1.9
2016-Jun-21 19:33N 57°01' E 012°02'3 3.0
2016-Jun-21 18:33N 57°03' E 012°07'5 4.7
2016-Jun-21 17:29N 57°04' E 012°16'0 0.0
2016-Jun-21 15:29N 57°04' E 012°16'0 0.0
2016-Jun-21 14:33N 57°04' E 012°16'0 0.0
2016-Jun-21 13:32N 57°04' E 012°16'0 0.0
2016-Jun-21 12:14N 57°04' E 012°16'0 0.0
2016-Jun-21 11:20N 57°04' E 012°16'0 0.0
2016-Jun-21 10:32N 57°04' E 012°16'0 0.0
2016-Jun-21 09:32N 57°04' E 012°16'0 0.0
2016-Jun-21 08:32N 57°04' E 012°16'0 0.0
2016-Jun-21 07:32N 57°04' E 012°16'0 0.0
2016-Jun-21 04:32N 57°04' E 012°16'0 0.0
2016-Jun-21 03:32N 57°04' E 012°16'0 0.0
2016-Jun-21 02:32N 57°04' E 012°16'0 0.0
2016-Jun-21 01:32N 57°04' E 012°16'0 0.0
2016-Jun-21 00:32N 57°04' E 012°16'0 0.0
2016-Jun-20 23:32N 57°04' E 012°16'0 0.0
2016-Jun-20 22:26N 57°04' E 012°16'0 0.0
2016-Jun-20 21:26N 57°04' E 012°16'0 0.0
2016-Jun-20 20:32N 57°04' E 012°16'0 0.0
2016-Jun-20 19:32N 57°04' E 012°16'0 0.0
2016-Jun-20 18:32N 57°04' E 012°16'0 0.0
2016-Jun-20 17:32N 57°04' E 012°16'0 0.0
2016-Jun-20 16:32N 57°04' E 012°16'0 0.0
2016-Jun-20 15:32N 57°04' E 012°16'0 0.0
2016-Jun-20 14:32N 57°04' E 012°16'0 0.0
2016-Jun-20 13:32N 57°04' E 012°16'0 0.0
2016-Jun-20 12:32N 57°04' E 012°16'0 0.0
2016-Jun-20 11:32N 57°04' E 012°16'0 0.0
2016-Jun-20 10:32N 57°04' E 012°16'0 0.0
2016-Jun-20 08:32N 57°04' E 012°16'0 0.0
2016-Jun-20 05:29N 57°04' E 012°16'0 0.0
2016-Jun-19 20:08N 57°04' E 012°16'0 0.0
2016-Jun-19 19:14N 57°04' E 012°16'  
2016-Jun-17 05:30N 57°03' E 012°15'5 5.2
2016-Jun-17 04:33N 57°02' E 012°06'3 2.5
2016-Jun-17 03:32N 57°02' E 012°02'4 2.0
2016-Jun-17 01:32N 56°58' E 012°01'2 2.4
2016-Jun-17 00:33N 56°60' E 012°05'2 2.4
2016-Jun-16 23:33N 57°01' E 012°09'1 1.2
2016-Jun-16 22:32N 56°60' E 012°07'4 2.1
2016-Jun-16 20:32N 56°58' E 011°60'2 2.4
2016-Jun-16 19:33N 57°00' E 012°02'4 3.8
2016-Jun-16 18:33N 57°03' E 012°08'5 0.4
2016-Jun-16 06:04N 57°03' E 012°16'7 4.3
2016-Jun-16 04:29N 57°01' E 012°05'1 1.6
2016-Jun-16 03:33N 56°59' E 012°05'2 2.3
2016-Jun-16 02:31N 56°59' E 012°00'1 1.5
2016-Jun-16 01:33N 56°60' E 012°02'1 0.7
2016-Jun-16 00:33N 56°59' E 012°03'2 1.9
2016-Jun-15 23:31N 56°59' E 011°59'1 1.4
2016-Jun-15 22:34N 56°59' E 012°01'2 1.8
2016-Jun-15 21:33N 56°59' E 012°05'2 1.7
2016-Jun-15 20:33N 56°60' E 012°01'2 2.5
2016-Jun-15 19:33N 57°00' E 012°06'4 3.9
2016-Jun-15 18:33N 57°03' E 012°12'2 0.2
2016-Jun-15 06:12N 57°03' E 012°16'1 2.0
2016-Jun-15 05:28N 57°03' E 012°13'4 4.1
2016-Jun-15 04:33N 57°02' E 012°06'1 1.3
2016-Jun-15 03:31N 57°01' E 012°06'3 1.4
2016-Jun-15 01:34N 56°59' E 012°02'2 2.2
2016-Jun-15 00:33N 56°60' E 012°06'2 1.8
2016-Jun-14 23:32N 57°01' E 012°09'2 0.4
2016-Jun-14 19:33N 57°01' E 012°05'3 3.2
2016-Jun-14 18:33N 57°02' E 012°10'5 0.4
2016-Jun-14 04:30N 57°03' E 012°01'1 1.1
2016-Jun-14 03:33N 57°02' E 011°59'5 1.4
2016-Jun-14 00:23N 57°01' E 011°51'2 0.4
2016-Jun-13 20:33N 57°03' E 011°53'3 2.5
2016-Jun-13 19:30N 57°03' E 011°57'5 4.8
2016-Jun-13 18:33N 57°03' E 012°06'1 0.1
2016-Jun-13 05:27N 57°03' E 012°08'  

Dump ship's entire track history